sensor_id;sensor_type;location;lat;lon;timestamp;P1;durP1;ratioP1;P2;durP2;ratioP2
69203;SDS011;56317;27.658;85.326;2022-07-18T00:00:59;18.00;;;13.23;;
69203;SDS011;56317;27.658;85.326;2022-07-18T00:03:26;22.27;;;14.02;;
69203;SDS011;56317;27.658;85.326;2022-07-18T00:05:54;26.92;;;12.80;;
69203;SDS011;56317;27.658;85.326;2022-07-18T00:08:21;21.90;;;13.35;;
69203;SDS011;56317;27.658;85.326;2022-07-18T00:10:48;21.85;;;13.43;;
69203;SDS011;56317;27.658;85.326;2022-07-18T00:13:15;23.48;;;14.30;;
69203;SDS011;56317;27.658;85.326;2022-07-18T00:15:42;21.20;;;14.27;;
69203;SDS011;56317;27.658;85.326;2022-07-18T00:18:09;20.75;;;14.13;;
69203;SDS011;56317;27.658;85.326;2022-07-18T00:20:37;23.27;;;15.02;;
69203;SDS011;56317;27.658;85.326;2022-07-18T00:23:04;19.63;;;13.98;;
69203;SDS011;56317;27.658;85.326;2022-07-18T00:25:31;23.90;;;14.38;;
69203;SDS011;56317;27.658;85.326;2022-07-18T00:27:58;19.52;;;13.65;;
69203;SDS011;56317;27.658;85.326;2022-07-18T00:30:26;22.05;;;14.27;;
69203;SDS011;56317;27.658;85.326;2022-07-18T00:32:53;24.27;;;15.48;;
69203;SDS011;56317;27.658;85.326;2022-07-18T00:35:20;22.08;;;16.73;;
69203;SDS011;56317;27.658;85.326;2022-07-18T00:37:47;20.63;;;15.50;;
69203;SDS011;56317;27.658;85.326;2022-07-18T00:40:15;21.48;;;15.13;;
69203;SDS011;56317;27.658;85.326;2022-07-18T00:42:42;28.25;;;15.77;;
69203;SDS011;56317;27.658;85.326;2022-07-18T00:45:09;19.73;;;14.18;;
69203;SDS011;56317;27.658;85.326;2022-07-18T00:47:36;25.42;;;16.70;;
69203;SDS011;56317;27.658;85.326;2022-07-18T00:50:04;32.15;;;16.67;;
69203;SDS011;56317;27.658;85.326;2022-07-18T00:52:33;24.13;;;16.73;;
69203;SDS011;56317;27.658;85.326;2022-07-18T00:55:03;23.15;;;14.57;;
69203;SDS011;56317;27.658;85.326;2022-07-18T00:57:31;24.48;;;15.15;;
69203;SDS011;56317;27.658;85.326;2022-07-18T00:59:58;23.60;;;15.80;;
69203;SDS011;56317;27.658;85.326;2022-07-18T01:02:44;29.00;;;15.85;;
69203;SDS011;56317;27.658;85.326;2022-07-18T01:05:11;27.83;;;17.00;;
69203;SDS011;56317;27.658;85.326;2022-07-18T01:07:38;25.88;;;16.85;;
69203;SDS011;56317;27.658;85.326;2022-07-18T01:10:06;23.15;;;16.10;;
69203;SDS011;56317;27.658;85.326;2022-07-18T01:12:33;30.65;;;16.35;;
69203;SDS011;56317;27.658;85.326;2022-07-18T01:15:01;20.65;;;13.82;;
69203;SDS011;56317;27.658;85.326;2022-07-18T01:17:29;19.63;;;13.23;;
69203;SDS011;56317;27.658;85.326;2022-07-18T01:19:56;21.52;;;15.52;;
69203;SDS011;56317;27.658;85.326;2022-07-18T01:22:23;27.92;;;17.13;;
69203;SDS011;56317;27.658;85.326;2022-07-18T01:24:50;24.85;;;15.15;;
69203;SDS011;56317;27.658;85.326;2022-07-18T01:27:19;23.50;;;14.80;;
69203;SDS011;56317;27.658;85.326;2022-07-18T01:29:48;22.83;;;14.52;;
69203;SDS011;56317;27.658;85.326;2022-07-18T01:32:16;22.88;;;15.25;;
69203;SDS011;56317;27.658;85.326;2022-07-18T01:34:47;20.67;;;15.50;;
69203;SDS011;56317;27.658;85.326;2022-07-18T01:37:15;23.73;;;15.77;;
69203;SDS011;56317;27.658;85.326;2022-07-18T01:39:44;24.70;;;16.08;;
69203;SDS011;56317;27.658;85.326;2022-07-18T01:42:12;20.10;;;16.58;;
69203;SDS011;56317;27.658;85.326;2022-07-18T01:44:41;27.50;;;16.67;;
69203;SDS011;56317;27.658;85.326;2022-07-18T01:47:09;28.65;;;16.52;;
69203;SDS011;56317;27.658;85.326;2022-07-18T01:49:37;22.60;;;16.45;;
69203;SDS011;56317;27.658;85.326;2022-07-18T01:52:05;22.42;;;15.23;;
69203;SDS011;56317;27.658;85.326;2022-07-18T01:54:34;22.90;;;16.38;;
69203;SDS011;56317;27.658;85.326;2022-07-18T01:57:03;26.55;;;16.13;;
69203;SDS011;56317;27.658;85.326;2022-07-18T01:59:31;22.52;;;15.05;;
69203;SDS011;56317;27.658;85.326;2022-07-18T02:01:59;24.67;;;14.05;;
69203;SDS011;56317;27.658;85.326;2022-07-18T02:04:26;23.00;;;13.63;;
69203;SDS011;56317;27.658;85.326;2022-07-18T02:07:11;20.67;;;15.05;;
69203;SDS011;56317;27.658;85.326;2022-07-18T02:09:38;20.25;;;13.93;;
69203;SDS011;56317;27.658;85.326;2022-07-18T02:12:06;23.77;;;16.50;;
69203;SDS011;56317;27.658;85.326;2022-07-18T02:14:33;17.65;;;13.48;;
69203;SDS011;56317;27.658;85.326;2022-07-18T02:17:00;20.45;;;12.55;;
69203;SDS011;56317;27.658;85.326;2022-07-18T02:19:27;18.52;;;12.77;;
69203;SDS011;56317;27.658;85.326;2022-07-18T02:21:55;19.73;;;13.93;;
69203;SDS011;56317;27.658;85.326;2022-07-18T02:24:24;21.42;;;13.65;;
69203;SDS011;56317;27.658;85.326;2022-07-18T02:26:56;23.38;;;13.23;;
69203;SDS011;56317;27.658;85.326;2022-07-18T02:29:24;16.35;;;13.25;;
69203;SDS011;56317;27.658;85.326;2022-07-18T02:31:51;20.83;;;14.65;;
69203;SDS011;56317;27.658;85.326;2022-07-18T02:34:21;23.00;;;13.55;;
69203;SDS011;56317;27.658;85.326;2022-07-18T02:36:48;21.33;;;15.00;;
69203;SDS011;56317;27.658;85.326;2022-07-18T02:39:16;25.42;;;16.98;;
69203;SDS011;56317;27.658;85.326;2022-07-18T02:41:45;26.75;;;15.38;;
69203;SDS011;56317;27.658;85.326;2022-07-18T02:44:13;26.48;;;16.25;;
69203;SDS011;56317;27.658;85.326;2022-07-18T02:46:40;30.60;;;19.05;;
69203;SDS011;56317;27.658;85.326;2022-07-18T02:49:08;27.27;;;17.70;;
69203;SDS011;56317;27.658;85.326;2022-07-18T02:52:03;30.27;;;16.55;;
69203;SDS011;56317;27.658;85.326;2022-07-18T02:54:33;25.90;;;18.30;;
69203;SDS011;56317;27.658;85.326;2022-07-18T02:57:02;28.35;;;18.13;;
69203;SDS011;56317;27.658;85.326;2022-07-18T02:59:30;22.50;;;16.80;;
69203;SDS011;56317;27.658;85.326;2022-07-18T03:01:57;26.38;;;18.33;;
69203;SDS011;56317;27.658;85.326;2022-07-18T03:04:25;30.15;;;18.38;;
69203;SDS011;56317;27.658;85.326;2022-07-18T03:06:52;32.42;;;17.58;;
69203;SDS011;56317;27.658;85.326;2022-07-18T03:09:19;26.27;;;16.98;;
69203;SDS011;56317;27.658;85.326;2022-07-18T03:11:47;24.27;;;17.83;;
69203;SDS011;56317;27.658;85.326;2022-07-18T03:14:14;25.75;;;18.05;;
69203;SDS011;56317;27.658;85.326;2022-07-18T03:16:41;30.83;;;17.60;;
69203;SDS011;56317;27.658;85.326;2022-07-18T03:19:09;25.83;;;18.27;;
69203;SDS011;56317;27.658;85.326;2022-07-18T03:21:36;28.83;;;17.27;;
69203;SDS011;56317;27.658;85.326;2022-07-18T03:24:03;28.83;;;17.50;;
69203;SDS011;56317;27.658;85.326;2022-07-18T03:26:31;34.00;;;18.60;;
69203;SDS011;56317;27.658;85.326;2022-07-18T03:28:58;34.25;;;18.40;;
69203;SDS011;56317;27.658;85.326;2022-07-18T03:31:25;30.67;;;17.70;;
69203;SDS011;56317;27.658;85.326;2022-07-18T03:33:52;32.67;;;18.63;;
69203;SDS011;56317;27.658;85.326;2022-07-18T03:36:19;34.55;;;18.95;;
69203;SDS011;56317;27.658;85.326;2022-07-18T03:38:47;27.27;;;17.88;;
69203;SDS011;56317;27.658;85.326;2022-07-18T03:41:14;29.48;;;18.17;;
69203;SDS011;56317;27.658;85.326;2022-07-18T03:43:41;25.55;;;18.15;;
69203;SDS011;56317;27.658;85.326;2022-07-18T03:46:08;28.10;;;18.25;;
69203;SDS011;56317;27.658;85.326;2022-07-18T03:48:36;21.52;;;16.63;;
69203;SDS011;56317;27.658;85.326;2022-07-18T03:51:03;23.25;;;16.80;;
69203;SDS011;56317;27.658;85.326;2022-07-18T03:53:31;20.20;;;15.52;;
69203;SDS011;56317;27.658;85.326;2022-07-18T03:55:59;30.63;;;17.95;;
69203;SDS011;56317;27.658;85.326;2022-07-18T03:58:26;27.55;;;17.92;;
69203;SDS011;56317;27.658;85.326;2022-07-18T04:00:54;31.95;;;18.67;;
69203;SDS011;56317;27.658;85.326;2022-07-18T04:03:22;28.48;;;19.58;;
69203;SDS011;56317;27.658;85.326;2022-07-18T04:05:50;26.20;;;17.27;;
69203;SDS011;56317;27.658;85.326;2022-07-18T04:08:17;25.83;;;17.60;;
69203;SDS011;56317;27.658;85.326;2022-07-18T04:10:45;22.75;;;15.55;;
69203;SDS011;56317;27.658;85.326;2022-07-18T04:13:12;20.48;;;11.40;;
69203;SDS011;56317;27.658;85.326;2022-07-18T04:15:40;18.73;;;12.65;;
69203;SDS011;56317;27.658;85.326;2022-07-18T04:18:07;21.13;;;12.05;;
69203;SDS011;56317;27.658;85.326;2022-07-18T04:20:35;23.45;;;12.65;;
69203;SDS011;56317;27.658;85.326;2022-07-18T04:23:07;15.43;;;10.20;;
69203;SDS011;56317;27.658;85.326;2022-07-18T04:25:37;10.75;;;9.05;;
69203;SDS011;56317;27.658;85.326;2022-07-18T04:30:35;15.35;;;7.72;;
69203;SDS011;56317;27.658;85.326;2022-07-18T04:33:04;11.95;;;7.43;;
69203;SDS011;56317;27.658;85.326;2022-07-18T04:35:33;11.13;;;8.25;;
69203;SDS011;56317;27.658;85.326;2022-07-18T04:38:05;9.90;;;6.95;;
69203;SDS011;56317;27.658;85.326;2022-07-18T04:40:36;12.93;;;7.75;;
69203;SDS011;56317;27.658;85.326;2022-07-18T04:43:04;11.10;;;7.18;;
69203;SDS011;56317;27.658;85.326;2022-07-18T04:45:32;10.60;;;5.72;;
69203;SDS011;56317;27.658;85.326;2022-07-18T04:48:00;8.20;;;5.30;;
69203;SDS011;56317;27.658;85.326;2022-07-18T04:50:30;8.25;;;5.57;;
69203;SDS011;56317;27.658;85.326;2022-07-18T04:52:58;12.60;;;6.72;;
69203;SDS011;56317;27.658;85.326;2022-07-18T04:55:25;9.13;;;5.63;;
69203;SDS011;56317;27.658;85.326;2022-07-18T04:57:54;9.50;;;5.50;;
69203;SDS011;56317;27.658;85.326;2022-07-18T05:00:23;11.82;;;6.05;;
69203;SDS011;56317;27.658;85.326;2022-07-18T05:02:51;9.85;;;4.82;;
69203;SDS011;56317;27.658;85.326;2022-07-18T05:05:20;8.88;;;4.25;;
69203;SDS011;56317;27.658;85.326;2022-07-18T05:07:48;8.00;;;4.68;;
69203;SDS011;56317;27.658;85.326;2022-07-18T05:10:16;13.02;;;5.75;;
69203;SDS011;56317;27.658;85.326;2022-07-18T05:12:46;9.20;;;6.05;;
69203;SDS011;56317;27.658;85.326;2022-07-18T05:15:19;10.13;;;5.68;;
69203;SDS011;56317;27.658;85.326;2022-07-18T05:17:48;7.68;;;5.97;;
69203;SDS011;56317;27.658;85.326;2022-07-18T05:20:16;8.82;;;6.05;;
69203;SDS011;56317;27.658;85.326;2022-07-18T05:22:46;14.27;;;6.32;;
69203;SDS011;56317;27.658;85.326;2022-07-18T05:25:13;7.53;;;5.93;;
69203;SDS011;56317;27.658;85.326;2022-07-18T05:27:42;10.05;;;5.75;;
69203;SDS011;56317;27.658;85.326;2022-07-18T05:30:11;12.40;;;5.90;;
69203;SDS011;56317;27.658;85.326;2022-07-18T05:32:43;10.05;;;6.53;;
69203;SDS011;56317;27.658;85.326;2022-07-18T05:35:11;11.77;;;5.50;;
69203;SDS011;56317;27.658;85.326;2022-07-18T05:37:39;6.30;;;4.03;;
69203;SDS011;56317;27.658;85.326;2022-07-18T05:40:07;5.90;;;4.00;;
69203;SDS011;56317;27.658;85.326;2022-07-18T05:42:36;13.95;;;5.80;;
69203;SDS011;56317;27.658;85.326;2022-07-18T05:45:03;9.07;;;5.38;;
69203;SDS011;56317;27.658;85.326;2022-07-18T05:47:31;7.57;;;4.35;;
69203;SDS011;56317;27.658;85.326;2022-07-18T05:49:59;12.95;;;4.30;;
69203;SDS011;56317;27.658;85.326;2022-07-18T05:52:27;13.05;;;5.85;;
69203;SDS011;56317;27.658;85.326;2022-07-18T05:54:57;7.18;;;4.30;;
69203;SDS011;56317;27.658;85.326;2022-07-18T05:57:28;6.90;;;4.45;;
69203;SDS011;56317;27.658;85.326;2022-07-18T05:59:58;8.60;;;5.32;;
69203;SDS011;56317;27.658;85.326;2022-07-18T06:02:26;7.47;;;4.30;;
69203;SDS011;56317;27.658;85.326;2022-07-18T06:04:53;11.15;;;4.63;;
69203;SDS011;56317;27.658;85.326;2022-07-18T06:07:20;8.00;;;4.07;;
69203;SDS011;56317;27.658;85.326;2022-07-18T06:09:47;10.82;;;4.88;;
69203;SDS011;56317;27.658;85.326;2022-07-18T06:12:18;8.70;;;4.70;;
69203;SDS011;56317;27.658;85.326;2022-07-18T06:14:47;11.10;;;5.00;;
69203;SDS011;56317;27.658;85.326;2022-07-18T06:17:14;10.02;;;4.90;;
69203;SDS011;56317;27.658;85.326;2022-07-18T06:19:42;7.38;;;4.80;;
69203;SDS011;56317;27.658;85.326;2022-07-18T06:22:09;10.02;;;5.13;;
69203;SDS011;56317;27.658;85.326;2022-07-18T06:24:37;8.25;;;4.55;;
69203;SDS011;56317;27.658;85.326;2022-07-18T06:27:04;8.63;;;4.50;;
69203;SDS011;56317;27.658;85.326;2022-07-18T06:29:32;12.85;;;5.43;;
69203;SDS011;56317;27.658;85.326;2022-07-18T06:31:59;10.20;;;5.20;;
69203;SDS011;56317;27.658;85.326;2022-07-18T06:34:26;10.93;;;4.82;;
69203;SDS011;56317;27.658;85.326;2022-07-18T06:36:54;8.80;;;5.20;;
69203;SDS011;56317;27.658;85.326;2022-07-18T06:39:21;11.00;;;5.25;;
69203;SDS011;56317;27.658;85.326;2022-07-18T06:41:48;8.23;;;4.90;;
69203;SDS011;56317;27.658;85.326;2022-07-18T06:44:16;7.38;;;4.78;;
69203;SDS011;56317;27.658;85.326;2022-07-18T06:46:43;9.13;;;4.53;;
69203;SDS011;56317;27.658;85.326;2022-07-18T06:49:11;10.95;;;5.72;;
69203;SDS011;56317;27.658;85.326;2022-07-18T06:51:38;12.60;;;5.68;;
69203;SDS011;56317;27.658;85.326;2022-07-18T06:54:05;11.32;;;5.80;;
69203;SDS011;56317;27.658;85.326;2022-07-18T06:56:32;12.82;;;5.43;;
69203;SDS011;56317;27.658;85.326;2022-07-18T06:58:59;8.38;;;5.03;;
69203;SDS011;56317;27.658;85.326;2022-07-18T07:01:27;13.10;;;5.90;;
69203;SDS011;56317;27.658;85.326;2022-07-18T07:03:54;15.13;;;7.00;;
69203;SDS011;56317;27.658;85.326;2022-07-18T07:06:21;9.13;;;5.10;;
69203;SDS011;56317;27.658;85.326;2022-07-18T07:08:48;10.57;;;6.15;;
69203;SDS011;56317;27.658;85.326;2022-07-18T07:11:16;7.38;;;5.30;;
69203;SDS011;56317;27.658;85.326;2022-07-18T07:13:43;10.77;;;5.43;;
69203;SDS011;56317;27.658;85.326;2022-07-18T07:16:10;9.93;;;6.03;;
69203;SDS011;56317;27.658;85.326;2022-07-18T07:18:38;8.98;;;5.28;;
69203;SDS011;56317;27.658;85.326;2022-07-18T07:21:08;9.18;;;5.47;;
69203;SDS011;56317;27.658;85.326;2022-07-18T07:23:35;9.70;;;4.72;;
69203;SDS011;56317;27.658;85.326;2022-07-18T07:26:03;7.88;;;4.50;;
69203;SDS011;56317;27.658;85.326;2022-07-18T07:28:31;11.18;;;4.00;;
69203;SDS011;56317;27.658;85.326;2022-07-18T07:30:58;13.90;;;4.72;;
69203;SDS011;56317;27.658;85.326;2022-07-18T07:33:26;8.70;;;4.55;;
69203;SDS011;56317;27.658;85.326;2022-07-18T07:35:53;13.68;;;4.97;;
69203;SDS011;56317;27.658;85.326;2022-07-18T07:38:21;10.30;;;5.13;;
69203;SDS011;56317;27.658;85.326;2022-07-18T07:40:53;12.38;;;5.13;;
69203;SDS011;56317;27.658;85.326;2022-07-18T07:43:22;9.88;;;4.80;;
69203;SDS011;56317;27.658;85.326;2022-07-18T07:45:52;12.73;;;4.70;;
69203;SDS011;56317;27.658;85.326;2022-07-18T07:48:21;12.00;;;5.28;;
69203;SDS011;56317;27.658;85.326;2022-07-18T07:50:50;9.82;;;5.43;;
69203;SDS011;56317;27.658;85.326;2022-07-18T07:53:18;10.60;;;5.65;;
69203;SDS011;56317;27.658;85.326;2022-07-18T07:55:45;11.05;;;6.70;;
69203;SDS011;56317;27.658;85.326;2022-07-18T07:58:12;13.20;;;5.93;;
69203;SDS011;56317;27.658;85.326;2022-07-18T08:00:39;11.45;;;6.13;;
69203;SDS011;56317;27.658;85.326;2022-07-18T08:03:07;9.63;;;6.22;;
69203;SDS011;56317;27.658;85.326;2022-07-18T08:05:44;9.63;;;6.13;;
69203;SDS011;56317;27.658;85.326;2022-07-18T08:08:13;11.13;;;6.68;;
69203;SDS011;56317;27.658;85.326;2022-07-18T08:10:41;14.32;;;6.30;;
69203;SDS011;56317;27.658;85.326;2022-07-18T08:13:10;12.27;;;6.45;;
69203;SDS011;56317;27.658;85.326;2022-07-18T08:15:39;10.65;;;6.40;;
69203;SDS011;56317;27.658;85.326;2022-07-18T08:18:06;11.27;;;6.80;;
69203;SDS011;56317;27.658;85.326;2022-07-18T08:20:34;10.18;;;7.30;;
69203;SDS011;56317;27.658;85.326;2022-07-18T08:23:03;14.25;;;7.72;;
69203;SDS011;56317;27.658;85.326;2022-07-18T08:25:34;13.27;;;7.88;;
69203;SDS011;56317;27.658;85.326;2022-07-18T08:28:04;13.00;;;8.07;;
69203;SDS011;56317;27.658;85.326;2022-07-18T08:30:32;12.90;;;7.93;;
69203;SDS011;56317;27.658;85.326;2022-07-18T08:33:00;16.25;;;7.75;;
69203;SDS011;56317;27.658;85.326;2022-07-18T08:35:28;16.00;;;8.82;;
69203;SDS011;56317;27.658;85.326;2022-07-18T08:37:58;17.48;;;8.18;;
69203;SDS011;56317;27.658;85.326;2022-07-18T08:40:26;11.52;;;7.85;;
69203;SDS011;56317;27.658;85.326;2022-07-18T08:42:54;18.27;;;8.32;;
69203;SDS011;56317;27.658;85.326;2022-07-18T08:45:23;16.73;;;8.05;;
69203;SDS011;56317;27.658;85.326;2022-07-18T08:47:51;13.32;;;7.50;;
69203;SDS011;56317;27.658;85.326;2022-07-18T08:50:19;10.38;;;7.82;;
69203;SDS011;56317;27.658;85.326;2022-07-18T08:52:46;15.55;;;9.23;;
69203;SDS011;56317;27.658;85.326;2022-07-18T08:55:15;20.48;;;7.75;;
69203;SDS011;56317;27.658;85.326;2022-07-18T08:57:42;17.05;;;9.85;;
69203;SDS011;56317;27.658;85.326;2022-07-18T09:00:10;16.27;;;8.88;;
69203;SDS011;56317;27.658;85.326;2022-07-18T09:02:38;14.38;;;8.80;;
69203;SDS011;56317;27.658;85.326;2022-07-18T09:05:05;18.80;;;9.38;;
69203;SDS011;56317;27.658;85.326;2022-07-18T09:07:43;19.58;;;10.43;;
69203;SDS011;56317;27.658;85.326;2022-07-18T09:10:12;18.48;;;10.15;;
69203;SDS011;56317;27.658;85.326;2022-07-18T09:12:39;20.48;;;9.43;;
69203;SDS011;56317;27.658;85.326;2022-07-18T09:15:22;16.08;;;9.40;;
69203;SDS011;56317;27.658;85.326;2022-07-18T09:17:50;15.70;;;9.02;;
69203;SDS011;56317;27.658;85.326;2022-07-18T09:20:21;16.83;;;9.50;;
69203;SDS011;56317;27.658;85.326;2022-07-18T09:22:49;19.20;;;10.07;;
69203;SDS011;56317;27.658;85.326;2022-07-18T09:25:17;16.67;;;9.32;;
69203;SDS011;56317;27.658;85.326;2022-07-18T09:27:47;14.37;;;9.37;;
69203;SDS011;56317;27.658;85.326;2022-07-18T09:30:20;18.20;;;9.95;;
69203;SDS011;56317;27.658;85.326;2022-07-18T09:35:51;15.13;;;7.88;;
69203;SDS011;56317;27.658;85.326;2022-07-18T09:38:27;12.93;;;9.50;;
69203;SDS011;56317;27.658;85.326;2022-07-18T09:40:56;14.15;;;8.80;;
69203;SDS011;56317;27.658;85.326;2022-07-18T09:43:24;15.05;;;8.10;;
69203;SDS011;56317;27.658;85.326;2022-07-18T09:46:03;15.50;;;8.38;;
69203;SDS011;56317;27.658;85.326;2022-07-18T09:48:32;19.95;;;8.90;;
69203;SDS011;56317;27.658;85.326;2022-07-18T09:51:02;12.20;;;7.70;;
69203;SDS011;56317;27.658;85.326;2022-07-18T09:53:34;11.32;;;6.97;;
69203;SDS011;56317;27.658;85.326;2022-07-18T09:56:22;17.70;;;8.77;;
69203;SDS011;56317;27.658;85.326;2022-07-18T09:58:51;14.88;;;8.50;;
69203;SDS011;56317;27.658;85.326;2022-07-18T10:01:22;16.45;;;7.60;;
69203;SDS011;56317;27.658;85.326;2022-07-18T10:03:50;15.52;;;7.47;;
69203;SDS011;56317;27.658;85.326;2022-07-18T10:06:18;13.00;;;6.93;;
69203;SDS011;56317;27.658;85.326;2022-07-18T10:08:45;12.32;;;6.75;;
69203;SDS011;56317;27.658;85.326;2022-07-18T10:11:13;9.88;;;5.88;;
69203;SDS011;56317;27.658;85.326;2022-07-18T10:13:42;9.18;;;6.55;;
69203;SDS011;56317;27.658;85.326;2022-07-18T10:16:09;10.27;;;5.60;;
69203;SDS011;56317;27.658;85.326;2022-07-18T10:18:37;8.18;;;5.03;;
69203;SDS011;56317;27.658;85.326;2022-07-18T10:21:05;14.70;;;6.40;;
69203;SDS011;56317;27.658;85.326;2022-07-18T10:23:38;12.05;;;6.15;;
69203;SDS011;56317;27.658;85.326;2022-07-18T10:31:29;9.13;;;4.25;;
69203;SDS011;56317;27.658;85.326;2022-07-18T10:34:09;10.93;;;5.00;;
69203;SDS011;56317;27.658;85.326;2022-07-18T10:39:39;15.43;;;4.78;;
69203;SDS011;56317;27.658;85.326;2022-07-18T10:42:13;12.30;;;4.55;;
69203;SDS011;56317;27.658;85.326;2022-07-18T10:44:41;11.73;;;5.05;;
69203;SDS011;56317;27.658;85.326;2022-07-18T10:47:10;15.23;;;5.32;;
69203;SDS011;56317;27.658;85.326;2022-07-18T10:57:41;7.90;;;4.05;;
69203;SDS011;56317;27.658;85.326;2022-07-18T11:00:36;10.32;;;5.07;;
69203;SDS011;56317;27.658;85.326;2022-07-18T11:03:05;7.95;;;4.45;;
69203;SDS011;56317;27.658;85.326;2022-07-18T11:05:34;10.93;;;4.70;;
69203;SDS011;56317;27.658;85.326;2022-07-18T11:23:53;17.73;;;5.68;;
69203;SDS011;56317;27.658;85.326;2022-07-18T11:26:25;15.20;;;6.40;;
69203;SDS011;56317;27.658;85.326;2022-07-18T11:28:57;20.35;;;6.35;;
69203;SDS011;56317;27.658;85.326;2022-07-18T11:31:27;13.10;;;6.32;;
69203;SDS011;56317;27.658;85.326;2022-07-18T11:33:55;13.20;;;6.65;;
69203;SDS011;56317;27.658;85.326;2022-07-18T11:36:28;13.80;;;6.22;;
69203;SDS011;56317;27.658;85.326;2022-07-18T11:38:59;14.55;;;6.07;;
69203;SDS011;56317;27.658;85.326;2022-07-18T11:41:28;12.32;;;6.15;;
69203;SDS011;56317;27.658;85.326;2022-07-18T11:43:56;14.88;;;6.28;;
69203;SDS011;56317;27.658;85.326;2022-07-18T11:46:24;13.88;;;7.35;;
69203;SDS011;56317;27.658;85.326;2022-07-18T11:48:59;13.73;;;6.57;;
69203;SDS011;56317;27.658;85.326;2022-07-18T11:51:35;14.60;;;6.70;;
69203;SDS011;56317;27.658;85.326;2022-07-18T11:54:07;10.15;;;6.10;;
69203;SDS011;56317;27.658;85.326;2022-07-18T11:56:45;15.38;;;6.20;;
69203;SDS011;56317;27.658;85.326;2022-07-18T11:59:14;12.98;;;6.65;;
69203;SDS011;56317;27.658;85.326;2022-07-18T12:01:41;9.02;;;6.70;;
69203;SDS011;56317;27.658;85.326;2022-07-18T12:04:18;14.82;;;5.50;;
69203;SDS011;56317;27.658;85.326;2022-07-18T12:09:40;13.85;;;6.10;;
69203;SDS011;56317;27.658;85.326;2022-07-18T12:12:11;9.35;;;4.88;;
69203;SDS011;56317;27.658;85.326;2022-07-18T12:14:40;17.67;;;5.78;;
69203;SDS011;56317;27.658;85.326;2022-07-18T12:17:08;20.90;;;11.35;;
69203;SDS011;56317;27.658;85.326;2022-07-18T12:19:39;21.02;;;12.40;;
69203;SDS011;56317;27.658;85.326;2022-07-18T12:22:07;29.13;;;17.52;;
69203;SDS011;56317;27.658;85.326;2022-07-18T12:32:55;17.60;;;9.48;;
69203;SDS011;56317;27.658;85.326;2022-07-18T12:35:27;18.77;;;9.95;;
69203;SDS011;56317;27.658;85.326;2022-07-18T12:38:07;15.93;;;9.52;;
69203;SDS011;56317;27.658;85.326;2022-07-18T12:43:33;18.63;;;11.05;;
69203;SDS011;56317;27.658;85.326;2022-07-18T12:46:08;18.27;;;10.15;;
69203;SDS011;56317;27.658;85.326;2022-07-18T12:51:03;18.48;;;9.23;;
69203;SDS011;56317;27.658;85.326;2022-07-18T12:53:39;19.48;;;10.18;;
69203;SDS011;56317;27.658;85.326;2022-07-18T12:56:07;14.45;;;7.78;;
69203;SDS011;56317;27.658;85.326;2022-07-18T12:58:35;11.05;;;7.65;;
69203;SDS011;56317;27.658;85.326;2022-07-18T13:01:02;13.32;;;7.95;;
69203;SDS011;56317;27.658;85.326;2022-07-18T13:03:31;13.40;;;7.43;;
69203;SDS011;56317;27.658;85.326;2022-07-18T13:05:59;13.10;;;7.55;;
69203;SDS011;56317;27.658;85.326;2022-07-18T13:08:26;13.40;;;8.07;;
69203;SDS011;56317;27.658;85.326;2022-07-18T13:10:53;10.52;;;7.53;;
69203;SDS011;56317;27.658;85.326;2022-07-18T13:13:20;19.15;;;8.68;;
69203;SDS011;56317;27.658;85.326;2022-07-18T13:15:47;20.92;;;9.82;;
69203;SDS011;56317;27.658;85.326;2022-07-18T13:18:15;15.93;;;8.68;;
69203;SDS011;56317;27.658;85.326;2022-07-18T13:20:42;22.35;;;13.32;;
69203;SDS011;56317;27.658;85.326;2022-07-18T13:23:09;15.38;;;7.32;;
69203;SDS011;56317;27.658;85.326;2022-07-18T13:25:37;13.93;;;7.68;;
69203;SDS011;56317;27.658;85.326;2022-07-18T13:28:04;14.57;;;7.45;;
69203;SDS011;56317;27.658;85.326;2022-07-18T13:30:32;20.38;;;10.60;;
69203;SDS011;56317;27.658;85.326;2022-07-18T13:32:59;20.60;;;12.45;;
69203;SDS011;56317;27.658;85.326;2022-07-18T13:35:26;21.48;;;10.30;;
69203;SDS011;56317;27.658;85.326;2022-07-18T13:37:54;20.45;;;10.15;;
69203;SDS011;56317;27.658;85.326;2022-07-18T13:40:21;14.18;;;9.70;;
69203;SDS011;56317;27.658;85.326;2022-07-18T13:42:49;24.42;;;15.18;;
69203;SDS011;56317;27.658;85.326;2022-07-18T13:45:16;18.13;;;9.52;;
69203;SDS011;56317;27.658;85.326;2022-07-18T13:47:43;19.98;;;12.73;;
69203;SDS011;56317;27.658;85.326;2022-07-18T13:50:10;17.15;;;9.52;;
69203;SDS011;56317;27.658;85.326;2022-07-18T13:52:38;14.25;;;9.13;;
69203;SDS011;56317;27.658;85.326;2022-07-18T13:55:05;22.77;;;10.63;;
69203;SDS011;56317;27.658;85.326;2022-07-18T13:57:33;15.18;;;8.50;;
69203;SDS011;56317;27.658;85.326;2022-07-18T14:00:00;15.27;;;8.93;;
69203;SDS011;56317;27.658;85.326;2022-07-18T14:02:31;13.50;;;8.23;;
69203;SDS011;56317;27.658;85.326;2022-07-18T14:04:58;15.60;;;8.43;;
69203;SDS011;56317;27.658;85.326;2022-07-18T14:07:25;16.83;;;9.50;;
69203;SDS011;56317;27.658;85.326;2022-07-18T14:09:55;18.00;;;8.75;;
69203;SDS011;56317;27.658;85.326;2022-07-18T14:12:23;15.60;;;8.75;;
69203;SDS011;56317;27.658;85.326;2022-07-18T14:14:50;13.88;;;8.40;;
69203;SDS011;56317;27.658;85.326;2022-07-18T14:17:17;15.15;;;8.27;;
69203;SDS011;56317;27.658;85.326;2022-07-18T14:19:44;12.52;;;7.82;;
69203;SDS011;56317;27.658;85.326;2022-07-18T14:22:11;13.35;;;8.07;;
69203;SDS011;56317;27.658;85.326;2022-07-18T14:24:38;16.40;;;6.80;;
69203;SDS011;56317;27.658;85.326;2022-07-18T14:27:06;10.20;;;6.80;;
69203;SDS011;56317;27.658;85.326;2022-07-18T14:29:33;16.23;;;7.30;;
69203;SDS011;56317;27.658;85.326;2022-07-18T14:32:02;14.93;;;7.20;;
69203;SDS011;56317;27.658;85.326;2022-07-18T14:34:29;12.48;;;7.00;;
69203;SDS011;56317;27.658;85.326;2022-07-18T14:36:56;9.65;;;6.32;;
69203;SDS011;56317;27.658;85.326;2022-07-18T14:39:23;11.18;;;6.45;;
69203;SDS011;56317;27.658;85.326;2022-07-18T14:41:50;8.68;;;6.68;;
69203;SDS011;56317;27.658;85.326;2022-07-18T14:44:18;11.18;;;6.65;;
69203;SDS011;56317;27.658;85.326;2022-07-18T14:46:45;10.40;;;6.43;;
69203;SDS011;56317;27.658;85.326;2022-07-18T14:49:12;11.27;;;6.93;;
69203;SDS011;56317;27.658;85.326;2022-07-18T14:51:39;11.30;;;7.30;;
69203;SDS011;56317;27.658;85.326;2022-07-18T14:54:06;13.10;;;7.45;;
69203;SDS011;56317;27.658;85.326;2022-07-18T14:56:35;10.13;;;7.18;;
69203;SDS011;56317;27.658;85.326;2022-07-18T14:59:02;12.93;;;7.47;;
69203;SDS011;56317;27.658;85.326;2022-07-18T15:01:30;11.23;;;7.10;;
69203;SDS011;56317;27.658;85.326;2022-07-18T15:03:58;12.43;;;6.80;;
69203;SDS011;56317;27.658;85.326;2022-07-18T15:06:25;13.82;;;7.10;;
69203;SDS011;56317;27.658;85.326;2022-07-18T15:08:52;13.27;;;7.22;;
69203;SDS011;56317;27.658;85.326;2022-07-18T15:11:20;13.48;;;7.15;;
69203;SDS011;56317;27.658;85.326;2022-07-18T15:13:50;19.95;;;7.25;;
69203;SDS011;56317;27.658;85.326;2022-07-18T15:16:17;11.75;;;6.30;;
69203;SDS011;56317;27.658;85.326;2022-07-18T15:18:44;11.30;;;6.78;;
69203;SDS011;56317;27.658;85.326;2022-07-18T15:21:12;15.77;;;7.57;;